Time,TemperatureF,DewpointF,PressureIn,WindDirection,WindDirectionDegrees,WindSpeedMPH,WindSpeedGustMPH,Humidity,HourlyPrecipIn,Conditions,Clouds,dailyrainin,SoftwareType,DateUTC
2013-02-17 00:07:00,17.9,6.0,29.78,North,350,5.0,10.0,61,0.00,,,0.01,weatherlink.com 1.10,2013-02-17 05:07:00,
2013-02-17 00:23:00,18.0,6.0,29.78,NNW,340,3.0,9.0,60,0.00,,,0.01,weatherlink.com 1.10,2013-02-17 05:23:00,
2013-02-17 00:37:00,18.0,5.0,29.78,NNW,344,7.0,10.0,58,0.00,,,0.01,weatherlink.com 1.10,2013-02-17 05:37:00,
2013-02-17 00:53:00,17.7,5.0,29.76,NW,312,4.0,13.0,58,0.00,,,0.01,weatherlink.com 1.10,2013-02-17 05:53:00,
2013-02-17 01:08:00,17.3,5.0,29.76,NNW,333,4.0,11.0,59,0.00,,,0.01,weatherlink.com 1.10,2013-02-17 06:08:00,
2013-02-17 01:23:00,17.1,5.0,29.75,NW,311,6.0,15.0,58,0.00,,,0.01,weatherlink.com 1.10,2013-02-17 06:23:00,
2013-02-17 01:39:00,16.9,4.0,29.75,NNW,347,4.0,12.0,58,0.00,,,0.01,weatherlink.com 1.10,2013-02-17 06:39:00,
2013-02-17 01:53:00,16.7,5.0,29.75,WNW,298,2.0,11.0,59,0.00,,,0.01,weatherlink.com 1.10,2013-02-17 06:53:00,
2013-02-17 02:08:00,16.3,5.0,29.74,WNW,301,7.0,10.0,60,0.00,,,0.01,weatherlink.com 1.10,2013-02-17 07:08:00,
2013-02-17 02:23:00,16.0,5.0,29.74,WSW,246,9.0,13.0,61,0.00,,,0.01,weatherlink.com 1.10,2013-02-17 07:23:00,
2013-02-17 02:39:00,15.7,5.0,29.74,NW,313,5.0,12.0,63,0.00,,,0.01,weatherlink.com 1.10,2013-02-17 07:39:00,
2013-02-17 02:54:00,15.6,5.0,29.74,WNW,300,6.0,11.0,62,0.00,,,0.01,weatherlink.com 1.10,2013-02-17 07:54:00,
2013-02-17 03:09:00,15.3,5.0,29.74,NW,305,5.0,12.0,63,0.00,,,0.01,weatherlink.com 1.10,2013-02-17 08:09:00,
2013-02-17 03:24:00,14.9,5.0,29.74,NNW,344,8.0,15.0,64,0.00,,,0.01,weatherlink.com 1.10,2013-02-17 08:24:00,
2013-02-17 03:39:00,14.6,4.0,29.73,NW,313,9.0,14.0,64,0.00,,,0.01,weatherlink.com 1.10,2013-02-17 08:39:00,
2013-02-17 03:54:00,14.3,4.0,29.73,NNW,330,9.0,15.0,65,0.00,,,0.01,weatherlink.com 1.10,2013-02-17 08:54:00,
2013-02-17 04:09:00,14.0,4.0,29.72,NW,310,8.0,15.0,64,0.00,,,0.01,weatherlink.com 1.10,2013-02-17 09:09:00,
2013-02-17 04:25:00,13.5,4.0,29.72,NW,324,13.0,15.0,66,0.00,,,0.01,weatherlink.com 1.10,2013-02-17 09:25:00,
2013-02-17 04:40:00,13.3,4.0,29.73,NW,310,6.0,15.0,65,0.00,,,0.01,weatherlink.com 1.10,2013-02-17 09:40:00,
2013-02-17 04:56:00,13.1,3.0,29.73,NW,321,8.0,14.0,64,0.00,,,0.01,weatherlink.com 1.10,2013-02-17 09:56:00,
2013-02-17 05:10:00,13.1,2.0,29.74,NNW,329,7.0,12.0,62,0.00,,,0.00,weatherlink.com 1.10,2013-02-17 10:10:00,
2013-02-17 05:25:00,13.1,2.0,29.74,North,350,10.0,16.0,60,0.00,,,0.00,weatherlink.com 1.10,2013-02-17 10:25:00,
2013-02-17 05:40:00,12.8,2.0,29.74,NNW,341,5.0,14.0,61,0.00,,,0.00,weatherlink.com 1.10,2013-02-17 10:40:00,
2013-02-17 05:55:00,12.7,2.0,29.74,NW,310,8.0,19.0,62,0.00,,,0.00,weatherlink.com 1.10,2013-02-17 10:55:00,
2013-02-17 06:10:00,12.2,2.0,29.73,NW,313,12.0,15.0,64,0.00,,,0.00,weatherlink.com 1.10,2013-02-17 11:10:00,
2013-02-17 06:26:00,12.0,2.0,29.72,NNW,327,8.0,17.0,64,0.00,,,0.00,weatherlink.com 1.10,2013-02-17 11:26:00,
2013-02-17 06:41:00,11.7,2.0,29.72,NNW,346,10.0,18.0,65,0.00,,,0.00,weatherlink.com 1.10,2013-02-17 11:41:00,
2013-02-17 07:03:00,10.6,2.0,29.72,NW,320,9.0,17.0,69,0.00,,,0.00,weatherlink.com 1.10,2013-02-17 12:03:00,
2013-02-17 07:11:00,10.3,2.0,29.73,NNW,343,10.0,19.0,70,0.00,,,0.00,weatherlink.com 1.10,2013-02-17 12:11:00,
2013-02-17 07:26:00,9.9,2.0,29.72,NW,315,13.0,16.0,70,0.00,,,0.00,weatherlink.com 1.10,2013-02-17 12:26:00,
2013-02-17 07:41:00,9.6,2.0,29.73,NNW,338,10.0,18.0,71,0.00,,,0.00,weatherlink.com 1.10,2013-02-17 12:41:00,
2013-02-17 07:57:00,9.2,2.0,29.73,NNW,338,10.0,16.0,72,0.00,,,0.00,weatherlink.com 1.10,2013-02-17 12:57:00,
2013-02-17 08:13:00,9.1,2.0,29.73,NW,304,8.0,17.0,72,0.00,,,0.00,weatherlink.com 1.10,2013-02-17 13:13:00,
2013-02-17 08:27:00,9.4,2.0,29.74,NNW,329,11.0,20.0,72,0.00,,,0.00,weatherlink.com 1.10,2013-02-17 13:27:00,
2013-02-17 08:42:00,9.8,2.0,29.73,NW,313,13.0,20.0,70,0.00,,,0.00,weatherlink.com 1.10,2013-02-17 13:42:00,
2013-02-17 08:57:00,10.3,2.0,29.72,NW,323,12.0,18.0,69,0.00,,,0.00,weatherlink.com 1.10,2013-02-17 13:57:00,
2013-02-17 09:12:00,11.0,2.0,29.73,NW,317,11.0,21.0,67,0.00,,,0.00,weatherlink.com 1.10,2013-02-17 14:12:00,
2013-02-17 09:28:00,11.6,3.0,29.72,NW,311,15.0,27.0,67,0.00,,,0.00,weatherlink.com 1.10,2013-02-17 14:28:00,
2013-02-17 09:44:00,12.4,2.0,29.71,NW,325,17.0,25.0,64,0.00,,,0.00,weatherlink.com 1.10,2013-02-17 14:44:00,
2013-02-17 09:58:00,13.0,3.0,29.72,NNW,329,20.0,24.0,64,0.00,,,0.00,weatherlink.com 1.10,2013-02-17 14:58:00,
2013-02-17 10:13:00,12.9,2.0,29.72,NNW,330,11.0,33.0,63,0.00,,,0.00,weatherlink.com 1.10,2013-02-17 15:13:00,
2013-02-17 10:28:00,13.0,3.0,29.72,North,349,14.0,27.0,63,0.00,,,0.00,weatherlink.com 1.10,2013-02-17 15:28:00,
2013-02-17 10:43:00,12.8,2.0,29.73,WNW,286,18.0,27.0,63,0.00,,,0.00,weatherlink.com 1.10,2013-02-17 15:43:00,
2013-02-17 10:58:00,13.7,2.0,29.72,WNW,296,11.0,30.0,61,0.00,,,0.00,weatherlink.com 1.10,2013-02-17 15:58:00,
2013-02-17 11:15:00,14.1,4.0,29.72,NNW,337,13.0,25.0,63,0.00,,,0.00,weatherlink.com 1.10,2013-02-17 16:15:00,
2013-02-17 11:29:00,13.7,4.0,29.72,NW,306,14.0,32.0,65,0.00,,,0.00,weatherlink.com 1.10,2013-02-17 16:29:00,
2013-02-17 11:44:00,14.9,4.0,29.72,West,277,16.0,25.0,61,0.00,,,0.00,weatherlink.com 1.10,2013-02-17 16:44:00,
2013-02-17 11:59:00,14.7,3.0,29.72,West,266,6.0,33.0,60,0.00,,,0.00,weatherlink.com 1.10,2013-02-17 16:59:00,
2013-02-17 12:14:00,14.9,3.0,29.72,WNW,291,19.0,32.0,60,0.00,,,0.00,weatherlink.com 1.10,2013-02-17 17:14:00,
2013-02-17 12:29:00,15.4,3.0,29.72,WNW,283,16.0,26.0,59,0.00,,,0.00,weatherlink.com 1.10,2013-02-17 17:29:00,
2013-02-17 12:45:00,15.9,4.0,29.72,North,360,14.0,25.0,60,0.00,,,0.00,weatherlink.com 1.10,2013-02-17 17:45:00,
2013-02-17 13:00:00,15.8,4.0,29.72,NW,321,19.0,30.0,59,0.00,,,0.00,weatherlink.com 1.10,2013-02-17 18:00:00,
2013-02-17 13:15:00,15.9,3.0,29.73,West,261,10.0,27.0,58,0.00,,,0.00,weatherlink.com 1.10,2013-02-17 18:15:00,
2013-02-17 13:30:00,14.9,4.0,29.73,NW,321,18.0,26.0,62,0.00,,,0.00,weatherlink.com 1.10,2013-02-17 18:30:00,
2013-02-17 13:45:00,15.8,4.0,29.74,NNW,330,17.0,22.0,61,0.00,,,0.00,weatherlink.com 1.10,2013-02-17 18:45:00,
2013-02-17 14:00:00,14.8,3.0,29.74,NW,316,14.0,29.0,60,0.00,,,0.00,weatherlink.com 1.10,2013-02-17 19:00:00,
2013-02-17 14:17:00,14.3,4.0,29.74,NW,306,7.0,27.0,63,0.00,,,0.00,weatherlink.com 1.10,2013-02-17 19:17:00,
2013-02-17 14:31:00,14.4,3.0,29.75,NW,326,18.0,27.0,62,0.00,,,0.00,weatherlink.com 1.10,2013-02-17 19:31:00,
2013-02-17 14:46:00,14.9,4.0,29.75,North,360,16.0,26.0,62,0.00,,,0.00,weatherlink.com 1.10,2013-02-17 19:46:00,
2013-02-17 15:01:00,14.7,5.0,29.75,NNW,335,18.0,26.0,64,0.00,,,0.00,weatherlink.com 1.10,2013-02-17 20:01:00,
2013-02-17 15:16:00,13.9,4.0,29.76,NNW,337,12.0,23.0,66,0.00,,,0.00,weatherlink.com 1.10,2013-02-17 20:16:00,
2013-02-17 15:32:00,13.0,3.0,29.77,WNW,289,14.0,34.0,63,0.00,,,0.00,weatherlink.com 1.10,2013-02-17 20:32:00,
2013-02-17 15:48:00,12.5,3.0,29.77,NNW,344,18.0,30.0,65,0.00,,,0.00,weatherlink.com 1.10,2013-02-17 20:48:00,
2013-02-17 16:03:00,12.5,2.0,29.78,WNW,296,12.0,24.0,63,0.00,,,0.00,weatherlink.com 1.10,2013-02-17 21:03:00,
2013-02-17 16:17:00,11.8,3.0,29.78,NW,317,10.0,30.0,67,0.00,,,0.00,weatherlink.com 1.10,2013-02-17 21:17:00,
2013-02-17 16:32:00,11.2,4.0,29.79,West,263,10.0,24.0,72,0.00,,,0.00,weatherlink.com 1.10,2013-02-17 21:32:00,
2013-02-17 16:47:00,11.0,3.0,29.80,NW,314,13.0,23.0,69,0.00,,,0.00,weatherlink.com 1.10,2013-02-17 21:47:00,
2013-02-17 17:02:00,10.7,2.0,29.81,WNW,300,18.0,21.0,67,0.00,,,0.00,weatherlink.com 1.10,2013-02-17 22:02:00,
2013-02-17 17:19:00,9.9,2.0,29.82,NNW,329,18.0,26.0,70,0.00,,,0.00,weatherlink.com 1.10,2013-02-17 22:19:00,
2013-02-17 17:48:00,8.8,3.0,29.84,NNW,331,20.0,26.0,76,0.00,,,0.00,weatherlink.com 1.10,2013-02-17 22:48:00,
2013-02-17 18:03:00,8.6,3.0,29.85,NW,324,9.0,26.0,77,0.00,,,0.00,weatherlink.com 1.10,2013-02-17 23:03:00,
2013-02-17 18:18:00,8.3,2.0,29.86,NW,321,9.0,24.0,75,0.00,,,0.00,weatherlink.com 1.10,2013-02-17 23:18:00,
2013-02-17 18:33:00,8.0,1.0,29.88,NW,309,25.0,35.0,72,0.00,,,0.00,weatherlink.com 1.10,2013-02-17 23:33:00,
2013-02-17 18:48:00,7.7,1.0,29.89,WNW,298,12.0,22.0,75,0.00,,,0.00,weatherlink.com 1.10,2013-02-17 23:48:00,
2013-02-17 19:04:00,7.2,3.0,29.89,NW,315,15.0,20.0,81,0.00,,,0.00,weatherlink.com 1.10,2013-02-18 00:04:00,
2013-02-17 19:19:00,6.9,3.0,29.91,NW,326,15.0,23.0,83,0.00,,,0.00,weatherlink.com 1.10,2013-02-18 00:19:00,
2013-02-17 19:34:00,6.6,3.0,29.91,NNW,338,22.0,24.0,83,0.00,,,0.00,weatherlink.com 1.10,2013-02-18 00:34:00,
2013-02-17 19:49:00,6.5,2.0,29.92,WNW,299,6.0,22.0,83,0.00,,,0.00,weatherlink.com 1.10,2013-02-18 00:49:00,
2013-02-17 20:04:00,6.3,2.0,29.92,WNW,298,11.0,18.0,83,0.00,,,0.00,weatherlink.com 1.10,2013-02-18 01:04:00,
2013-02-17 20:19:00,6.1,2.0,29.93,WNW,296,12.0,20.0,83,0.00,,,0.00,weatherlink.com 1.10,2013-02-18 01:19:00,
2013-02-17 20:35:00,6.0,2.0,29.94,NNW,327,10.0,21.0,83,0.00,,,0.00,weatherlink.com 1.10,2013-02-18 01:35:00,
2013-02-17 20:50:00,6.0,2.0,29.95,West,274,10.0,19.0,83,0.00,,,0.00,weatherlink.com 1.10,2013-02-18 01:50:00,
2013-02-17 21:05:00,6.2,2.0,29.95,NNW,337,13.0,19.0,82,0.00,,,0.00,weatherlink.com 1.10,2013-02-18 02:05:00,
2013-02-17 21:21:00,6.3,2.0,29.95,NNW,336,17.0,21.0,82,0.00,,,0.00,weatherlink.com 1.10,2013-02-18 02:21:00,
2013-02-17 21:36:00,6.4,2.0,29.96,WNW,301,17.0,23.0,82,0.00,,,0.00,weatherlink.com 1.10,2013-02-18 02:36:00,
2013-02-17 21:50:00,6.5,2.0,29.96,NW,304,13.0,23.0,82,0.00,,,0.00,weatherlink.com 1.10,2013-02-18 02:50:00,
2013-02-17 22:07:00,6.6,3.0,29.96,NNW,329,17.0,21.0,83,0.00,,,0.00,weatherlink.com 1.10,2013-02-18 03:07:00,
2013-02-17 22:21:00,6.8,3.0,29.97,NW,309,18.0,23.0,83,0.00,,,0.00,weatherlink.com 1.10,2013-02-18 03:21:00,
2013-02-17 22:36:00,6.9,3.0,29.97,North,355,13.0,26.0,83,0.00,,,0.00,weatherlink.com 1.10,2013-02-18 03:36:00,
2013-02-17 22:53:00,7.1,3.0,29.98,WNW,285,9.0,21.0,84,0.00,,,0.00,weatherlink.com 1.10,2013-02-18 03:53:00,
2013-02-17 23:06:00,7.1,3.0,29.98,NNW,335,14.0,23.0,84,0.00,,,0.00,weatherlink.com 1.10,2013-02-18 04:06:00,
2013-02-17 23:21:00,7.2,3.0,29.99,NW,318,15.0,21.0,84,0.00,,,0.00,weatherlink.com 1.10,2013-02-18 04:21:00,
2013-02-17 23:37:00,7.4,4.0,30.00,NW,322,17.0,23.0,84,0.00,,,0.00,weatherlink.com 1.10,2013-02-18 04:37:00,
2013-02-17 23:52:00,7.6,4.0,30.00,WNW,294,12.0,22.0,84,0.00,,,0.00,weatherlink.com 1.10,2013-02-18 04:52:00,